sensor_id;sensor_type;location;lat;lon;timestamp;temperature;humidity
44431;DHT22;30135;47.866;-4.222;2022-10-16T00:01:43;16.00;97.90
44431;DHT22;30135;47.866;-4.222;2022-10-16T00:04:09;16.00;97.90
44431;DHT22;30135;47.866;-4.222;2022-10-16T00:06:38;16.00;97.90
44431;DHT22;30135;47.866;-4.222;2022-10-16T00:09:06;16.00;97.90
44431;DHT22;30135;47.866;-4.222;2022-10-16T00:11:35;16.00;97.80
44431;DHT22;30135;47.866;-4.222;2022-10-16T00:14:08;16.00;97.80
44431;DHT22;30135;47.866;-4.222;2022-10-16T00:16:36;16.00;97.80
44431;DHT22;30135;47.866;-4.222;2022-10-16T00:19:09;16.00;97.80
44431;DHT22;30135;47.866;-4.222;2022-10-16T00:21:38;16.00;97.80
44431;DHT22;30135;47.866;-4.222;2022-10-16T00:24:07;16.00;97.80
44431;DHT22;30135;47.866;-4.222;2022-10-16T00:26:36;16.00;97.70
44431;DHT22;30135;47.866;-4.222;2022-10-16T00:29:05;15.90;97.70
44431;DHT22;30135;47.866;-4.222;2022-10-16T00:31:32;15.90;97.70
44431;DHT22;30135;47.866;-4.222;2022-10-16T00:33:59;15.90;97.60
44431;DHT22;30135;47.866;-4.222;2022-10-16T00:36:27;15.90;97.60
44431;DHT22;30135;47.866;-4.222;2022-10-16T00:38:55;15.80;97.50
44431;DHT22;30135;47.866;-4.222;2022-10-16T00:41:26;15.80;97.50
44431;DHT22;30135;47.866;-4.222;2022-10-16T00:43:59;15.90;97.50
44431;DHT22;30135;47.866;-4.222;2022-10-16T00:46:39;15.80;97.40
44431;DHT22;30135;47.866;-4.222;2022-10-16T00:49:08;15.80;97.40
44431;DHT22;30135;47.866;-4.222;2022-10-16T00:51:42;15.70;97.30
44431;DHT22;30135;47.866;-4.222;2022-10-16T00:54:14;15.70;97.30
44431;DHT22;30135;47.866;-4.222;2022-10-16T00:56:55;15.70;97.30
44431;DHT22;30135;47.866;-4.222;2022-10-16T00:59:31;15.70;97.30
44431;DHT22;30135;47.866;-4.222;2022-10-16T01:02:00;15.70;97.20
44431;DHT22;30135;47.866;-4.222;2022-10-16T01:04:37;15.60;97.50
44431;DHT22;30135;47.866;-4.222;2022-10-16T01:18:45;15.50;97.20
44431;DHT22;30135;47.866;-4.222;2022-10-16T01:29:54;15.40;97.20
44431;DHT22;30135;47.866;-4.222;2022-10-16T01:32:31;15.40;97.20
44431;DHT22;30135;47.866;-4.222;2022-10-16T01:35:18;15.40;97.20
44431;DHT22;30135;47.866;-4.222;2022-10-16T01:37:58;15.40;97.20
44431;DHT22;30135;47.866;-4.222;2022-10-16T01:40:32;15.30;97.20
44431;DHT22;30135;47.866;-4.222;2022-10-16T01:43:06;15.30;97.20
44431;DHT22;30135;47.866;-4.222;2022-10-16T01:45:36;15.30;97.20
44431;DHT22;30135;47.866;-4.222;2022-10-16T01:48:06;15.20;97.20
44431;DHT22;30135;47.866;-4.222;2022-10-16T01:50:38;15.20;97.20
44431;DHT22;30135;47.866;-4.222;2022-10-16T01:53:09;15.20;97.20
44431;DHT22;30135;47.866;-4.222;2022-10-16T01:55:42;15.20;97.20
44431;DHT22;30135;47.866;-4.222;2022-10-16T01:58:13;15.20;97.20
44431;DHT22;30135;47.866;-4.222;2022-10-16T02:00:43;15.20;97.20
44431;DHT22;30135;47.866;-4.222;2022-10-16T02:03:13;15.20;97.20
44431;DHT22;30135;47.866;-4.222;2022-10-16T02:08:17;15.10;97.10
44431;DHT22;30135;47.866;-4.222;2022-10-16T02:10:45;15.10;97.10
44431;DHT22;30135;47.866;-4.222;2022-10-16T02:13:31;15.10;97.50
44431;DHT22;30135;47.866;-4.222;2022-10-16T02:16:02;15.10;97.50
44431;DHT22;30135;47.866;-4.222;2022-10-16T02:18:29;15.10;97.10
44431;DHT22;30135;47.866;-4.222;2022-10-16T02:24:26;15.00;97.00
44431;DHT22;30135;47.866;-4.222;2022-10-16T02:26:49;15.00;97.00
44431;DHT22;30135;47.866;-4.222;2022-10-16T02:29:23;15.00;97.00
44431;DHT22;30135;47.866;-4.222;2022-10-16T02:32:03;15.00;97.00
44431;DHT22;30135;47.866;-4.222;2022-10-16T02:34:32;15.00;97.00
44431;DHT22;30135;47.866;-4.222;2022-10-16T02:37:01;14.90;96.90
44431;DHT22;30135;47.866;-4.222;2022-10-16T02:39:31;14.90;96.90
44431;DHT22;30135;47.866;-4.222;2022-10-16T02:41:59;14.90;96.90
44431;DHT22;30135;47.866;-4.222;2022-10-16T02:44:27;14.90;96.90
44431;DHT22;30135;47.866;-4.222;2022-10-16T02:46:55;14.90;96.80
44431;DHT22;30135;47.866;-4.222;2022-10-16T02:49:23;14.80;96.80
44431;DHT22;30135;47.866;-4.222;2022-10-16T02:51:51;14.80;96.70
44431;DHT22;30135;47.866;-4.222;2022-10-16T02:54:21;14.80;96.70
44431;DHT22;30135;47.866;-4.222;2022-10-16T02:56:50;14.80;96.70
44431;DHT22;30135;47.866;-4.222;2022-10-16T02:59:16;14.70;96.70
44431;DHT22;30135;47.866;-4.222;2022-10-16T03:01:43;14.70;96.70
44431;DHT22;30135;47.866;-4.222;2022-10-16T03:04:10;14.70;96.60
44431;DHT22;30135;47.866;-4.222;2022-10-16T03:06:37;14.70;96.60
44431;DHT22;30135;47.866;-4.222;2022-10-16T03:09:04;14.70;96.50
44431;DHT22;30135;47.866;-4.222;2022-10-16T03:11:32;14.60;96.50
44431;DHT22;30135;47.866;-4.222;2022-10-16T03:13:58;14.60;96.50
44431;DHT22;30135;47.866;-4.222;2022-10-16T03:16:28;14.60;96.50
44431;DHT22;30135;47.866;-4.222;2022-10-16T03:18:55;14.60;96.40
44431;DHT22;30135;47.866;-4.222;2022-10-16T03:21:24;14.50;96.40
44431;DHT22;30135;47.866;-4.222;2022-10-16T03:23:52;14.50;96.40
44431;DHT22;30135;47.866;-4.222;2022-10-16T03:26:19;14.50;96.40
44431;DHT22;30135;47.866;-4.222;2022-10-16T03:28:45;14.50;96.40
44431;DHT22;30135;47.866;-4.222;2022-10-16T03:31:12;14.40;96.30
44431;DHT22;30135;47.866;-4.222;2022-10-16T03:33:38;14.40;96.30
44431;DHT22;30135;47.866;-4.222;2022-10-16T03:36:06;14.40;96.20
44431;DHT22;30135;47.866;-4.222;2022-10-16T03:38:34;14.40;96.20
44431;DHT22;30135;47.866;-4.222;2022-10-16T03:41:01;14.30;96.20
44431;DHT22;30135;47.866;-4.222;2022-10-16T03:43:29;14.30;96.20
44431;DHT22;30135;47.866;-4.222;2022-10-16T03:45:58;14.30;96.20
44431;DHT22;30135;47.866;-4.222;2022-10-16T03:48:25;14.30;96.20
44431;DHT22;30135;47.866;-4.222;2022-10-16T03:50:53;14.30;96.10
44431;DHT22;30135;47.866;-4.222;2022-10-16T03:53:21;14.20;96.10
44431;DHT22;30135;47.866;-4.222;2022-10-16T03:55:48;14.20;96.10
44431;DHT22;30135;47.866;-4.222;2022-10-16T03:58:17;14.20;96.10
44431;DHT22;30135;47.866;-4.222;2022-10-16T04:00:46;14.20;96.10
44431;DHT22;30135;47.866;-4.222;2022-10-16T04:03:15;14.20;96.10
44431;DHT22;30135;47.866;-4.222;2022-10-16T04:05:46;14.10;96.10
44431;DHT22;30135;47.866;-4.222;2022-10-16T04:08:16;14.10;96.10
44431;DHT22;30135;47.866;-4.222;2022-10-16T04:10:43;14.10;96.20
44431;DHT22;30135;47.866;-4.222;2022-10-16T04:13:13;14.10;96.20
44431;DHT22;30135;47.866;-4.222;2022-10-16T04:15:41;14.10;96.20
44431;DHT22;30135;47.866;-4.222;2022-10-16T04:18:07;14.10;96.30
44431;DHT22;30135;47.866;-4.222;2022-10-16T04:20:35;14.10;96.40
44431;DHT22;30135;47.866;-4.222;2022-10-16T04:23:03;14.10;96.50
44431;DHT22;30135;47.866;-4.222;2022-10-16T04:25:30;14.10;96.60
44431;DHT22;30135;47.866;-4.222;2022-10-16T04:27:58;14.10;96.70
44431;DHT22;30135;47.866;-4.222;2022-10-16T04:30:25;14.10;96.70
44431;DHT22;30135;47.866;-4.222;2022-10-16T04:32:53;14.10;96.70
44431;DHT22;30135;47.866;-4.222;2022-10-16T04:35:21;14.10;96.80
44431;DHT22;30135;47.866;-4.222;2022-10-16T04:37:50;14.10;96.80
44431;DHT22;30135;47.866;-4.222;2022-10-16T04:40:17;14.10;96.90
44431;DHT22;30135;47.866;-4.222;2022-10-16T04:42:44;14.10;96.90
44431;DHT22;30135;47.866;-4.222;2022-10-16T04:45:11;14.10;96.80
44431;DHT22;30135;47.866;-4.222;2022-10-16T04:47:38;14.10;96.80
44431;DHT22;30135;47.866;-4.222;2022-10-16T04:50:06;14.10;96.80
44431;DHT22;30135;47.866;-4.222;2022-10-16T04:52:33;14.10;96.80
44431;DHT22;30135;47.866;-4.222;2022-10-16T04:55:02;14.10;96.80
44431;DHT22;30135;47.866;-4.222;2022-10-16T04:57:34;14.10;97.10
44431;DHT22;30135;47.866;-4.222;2022-10-16T05:00:06;14.10;96.80
44431;DHT22;30135;47.866;-4.222;2022-10-16T05:02:34;14.10;96.80
44431;DHT22;30135;47.866;-4.222;2022-10-16T05:05:03;14.00;96.80
44431;DHT22;30135;47.866;-4.222;2022-10-16T05:07:31;14.10;96.80
44431;DHT22;30135;47.866;-4.222;2022-10-16T05:10:03;14.10;96.80
44431;DHT22;30135;47.866;-4.222;2022-10-16T05:12:32;14.00;97.20
44431;DHT22;30135;47.866;-4.222;2022-10-16T05:14:58;14.00;96.80
44431;DHT22;30135;47.866;-4.222;2022-10-16T05:17:27;14.00;96.80
44431;DHT22;30135;47.866;-4.222;2022-10-16T05:19:59;14.00;96.80
44431;DHT22;30135;47.866;-4.222;2022-10-16T05:22:30;14.00;96.80
44431;DHT22;30135;47.866;-4.222;2022-10-16T05:25:03;14.00;96.70
44431;DHT22;30135;47.866;-4.222;2022-10-16T05:27:32;13.90;96.60
44431;DHT22;30135;47.866;-4.222;2022-10-16T05:30:01;13.90;96.60
44431;DHT22;30135;47.866;-4.222;2022-10-16T05:32:37;13.90;96.60
44431;DHT22;30135;47.866;-4.222;2022-10-16T05:35:04;13.90;96.60
44431;DHT22;30135;47.866;-4.222;2022-10-16T05:37:35;13.90;96.60
44431;DHT22;30135;47.866;-4.222;2022-10-16T05:40:03;13.90;96.60
44431;DHT22;30135;47.866;-4.222;2022-10-16T05:42:31;13.90;96.60
44431;DHT22;30135;47.866;-4.222;2022-10-16T05:44:57;13.90;96.70
44431;DHT22;30135;47.866;-4.222;2022-10-16T05:47:24;13.80;96.70
44431;DHT22;30135;47.866;-4.222;2022-10-16T05:49:52;13.80;96.70
44431;DHT22;30135;47.866;-4.222;2022-10-16T05:52:19;13.80;96.70
44431;DHT22;30135;47.866;-4.222;2022-10-16T05:54:46;13.80;96.70
44431;DHT22;30135;47.866;-4.222;2022-10-16T05:57:14;13.80;96.70
44431;DHT22;30135;47.866;-4.222;2022-10-16T05:59:41;13.80;96.80
44431;DHT22;30135;47.866;-4.222;2022-10-16T06:02:13;13.80;96.80
44431;DHT22;30135;47.866;-4.222;2022-10-16T06:04:43;13.80;96.90
44431;DHT22;30135;47.866;-4.222;2022-10-16T06:07:11;13.80;96.90
44431;DHT22;30135;47.866;-4.222;2022-10-16T06:09:39;13.80;97.00
44431;DHT22;30135;47.866;-4.222;2022-10-16T06:12:13;13.80;97.00
44431;DHT22;30135;47.866;-4.222;2022-10-16T06:14:42;13.90;97.10
44431;DHT22;30135;47.866;-4.222;2022-10-16T06:17:13;13.90;97.10
44431;DHT22;30135;47.866;-4.222;2022-10-16T06:19:41;13.80;97.10
44431;DHT22;30135;47.866;-4.222;2022-10-16T06:22:08;13.90;97.20
44431;DHT22;30135;47.866;-4.222;2022-10-16T06:24:34;13.90;97.30
44431;DHT22;30135;47.866;-4.222;2022-10-16T06:27:03;13.90;97.30
44431;DHT22;30135;47.866;-4.222;2022-10-16T06:29:31;13.90;97.40
44431;DHT22;30135;47.866;-4.222;2022-10-16T06:31:57;13.90;97.40
44431;DHT22;30135;47.866;-4.222;2022-10-16T06:34:24;13.90;97.50
44431;DHT22;30135;47.866;-4.222;2022-10-16T06:36:51;13.90;97.50
44431;DHT22;30135;47.866;-4.222;2022-10-16T06:39:18;14.00;97.60
44431;DHT22;30135;47.866;-4.222;2022-10-16T06:41:45;13.90;97.70
44431;DHT22;30135;47.866;-4.222;2022-10-16T06:44:13;14.00;97.80
44431;DHT22;30135;47.866;-4.222;2022-10-16T06:46:39;14.00;97.80
44431;DHT22;30135;47.866;-4.222;2022-10-16T06:49:06;14.00;97.90
44431;DHT22;30135;47.866;-4.222;2022-10-16T06:51:32;14.00;98.00
44431;DHT22;30135;47.866;-4.222;2022-10-16T06:54:02;14.00;98.00
44431;DHT22;30135;47.866;-4.222;2022-10-16T06:56:29;14.10;98.20
44431;DHT22;30135;47.866;-4.222;2022-10-16T06:58:56;14.10;98.20
44431;DHT22;30135;47.866;-4.222;2022-10-16T07:01:24;14.10;98.30
44431;DHT22;30135;47.866;-4.222;2022-10-16T07:03:52;14.10;98.40
44431;DHT22;30135;47.866;-4.222;2022-10-16T07:06:20;14.20;98.50
44431;DHT22;30135;47.866;-4.222;2022-10-16T07:08:48;14.20;98.60
44431;DHT22;30135;47.866;-4.222;2022-10-16T07:11:20;14.20;98.70
44431;DHT22;30135;47.866;-4.222;2022-10-16T07:13:48;14.30;98.80
44431;DHT22;30135;47.866;-4.222;2022-10-16T07:16:17;14.30;98.80
44431;DHT22;30135;47.866;-4.222;2022-10-16T07:18:47;14.30;98.90
44431;DHT22;30135;47.866;-4.222;2022-10-16T07:21:17;14.30;99.00
44431;DHT22;30135;47.866;-4.222;2022-10-16T07:23:52;14.40;99.10
44431;DHT22;30135;47.866;-4.222;2022-10-16T07:26:19;14.40;99.20
44431;DHT22;30135;47.866;-4.222;2022-10-16T07:28:47;14.40;99.60
44431;DHT22;30135;47.866;-4.222;2022-10-16T07:31:16;14.50;99.40
44431;DHT22;30135;47.866;-4.222;2022-10-16T07:33:44;14.50;99.40
44431;DHT22;30135;47.866;-4.222;2022-10-16T07:36:12;14.60;99.60
44431;DHT22;30135;47.866;-4.222;2022-10-16T07:38:38;14.60;99.50
44431;DHT22;30135;47.866;-4.222;2022-10-16T07:41:07;14.60;99.50
44431;DHT22;30135;47.866;-4.222;2022-10-16T07:43:36;14.70;99.60
44431;DHT22;30135;47.866;-4.222;2022-10-16T07:46:03;14.70;99.70
44431;DHT22;30135;47.866;-4.222;2022-10-16T07:48:32;14.80;99.80
44431;DHT22;30135;47.866;-4.222;2022-10-16T07:51:03;14.80;99.90
44431;DHT22;30135;47.866;-4.222;2022-10-16T07:53:36;14.90;99.90
44431;DHT22;30135;47.866;-4.222;2022-10-16T07:56:07;14.90;99.90
44431;DHT22;30135;47.866;-4.222;2022-10-16T07:58:35;14.90;99.90
44431;DHT22;30135;47.866;-4.222;2022-10-16T08:01:04;15.00;99.90
44431;DHT22;30135;47.866;-4.222;2022-10-16T08:03:36;15.00;99.90
44431;DHT22;30135;47.866;-4.222;2022-10-16T08:06:03;15.00;99.90
44431;DHT22;30135;47.866;-4.222;2022-10-16T08:08:31;15.10;99.90
44431;DHT22;30135;47.866;-4.222;2022-10-16T08:10:59;15.10;99.90
44431;DHT22;30135;47.866;-4.222;2022-10-16T08:13:25;15.10;99.90
44431;DHT22;30135;47.866;-4.222;2022-10-16T08:15:54;15.20;99.90
44431;DHT22;30135;47.866;-4.222;2022-10-16T08:18:22;15.20;99.90
44431;DHT22;30135;47.866;-4.222;2022-10-16T08:20:56;15.20;99.90
44431;DHT22;30135;47.866;-4.222;2022-10-16T08:23:26;15.20;99.90
44431;DHT22;30135;47.866;-4.222;2022-10-16T08:25:54;15.30;99.90
44431;DHT22;30135;47.866;-4.222;2022-10-16T08:28:23;15.30;99.90
44431;DHT22;30135;47.866;-4.222;2022-10-16T08:30:50;15.40;99.90
44431;DHT22;30135;47.866;-4.222;2022-10-16T08:33:16;15.40;99.90
44431;DHT22;30135;47.866;-4.222;2022-10-16T08:35:49;15.40;99.90
44431;DHT22;30135;47.866;-4.222;2022-10-16T08:38:20;15.40;99.90
44431;DHT22;30135;47.866;-4.222;2022-10-16T08:40:47;15.50;99.90
44431;DHT22;30135;47.866;-4.222;2022-10-16T08:49:17;15.50;99.90
44431;DHT22;30135;47.866;-4.222;2022-10-16T08:51:44;15.50;99.90
44431;DHT22;30135;47.866;-4.222;2022-10-16T08:57:22;15.60;99.90
44431;DHT22;30135;47.866;-4.222;2022-10-16T08:59:50;15.50;99.90
44431;DHT22;30135;47.866;-4.222;2022-10-16T09:06:16;15.60;99.90
44431;DHT22;30135;47.866;-4.222;2022-10-16T09:09:31;15.60;99.90
44431;DHT22;30135;47.866;-4.222;2022-10-16T09:18:37;15.60;99.90
44431;DHT22;30135;47.866;-4.222;2022-10-16T09:24:15;15.70;99.90
44431;DHT22;30135;47.866;-4.222;2022-10-16T09:26:47;15.70;99.90
44431;DHT22;30135;47.866;-4.222;2022-10-16T09:29:16;15.70;99.90
44431;DHT22;30135;47.866;-4.222;2022-10-16T09:31:46;15.80;99.90
44431;DHT22;30135;47.866;-4.222;2022-10-16T09:34:30;15.80;99.90
44431;DHT22;30135;47.866;-4.222;2022-10-16T09:36:59;15.80;99.90
44431;DHT22;30135;47.866;-4.222;2022-10-16T09:39:29;15.90;99.90
44431;DHT22;30135;47.866;-4.222;2022-10-16T09:41:55;15.80;99.90
44431;DHT22;30135;47.866;-4.222;2022-10-16T09:44:30;15.90;99.90
44431;DHT22;30135;47.866;-4.222;2022-10-16T09:47:20;15.90;99.90
44431;DHT22;30135;47.866;-4.222;2022-10-16T09:49:56;15.90;99.90
44431;DHT22;30135;47.866;-4.222;2022-10-16T09:52:26;15.90;99.90
44431;DHT22;30135;47.866;-4.222;2022-10-16T09:54:59;16.00;99.90
44431;DHT22;30135;47.866;-4.222;2022-10-16T09:57:27;16.00;99.90
44431;DHT22;30135;47.866;-4.222;2022-10-16T09:59:55;16.00;99.90
44431;DHT22;30135;47.866;-4.222;2022-10-16T10:02:33;16.00;99.90
44431;DHT22;30135;47.866;-4.222;2022-10-16T10:05:02;16.00;99.90
44431;DHT22;30135;47.866;-4.222;2022-10-16T10:07:35;16.10;99.90
44431;DHT22;30135;47.866;-4.222;2022-10-16T10:10:05;16.00;99.90
44431;DHT22;30135;47.866;-4.222;2022-10-16T10:12:42;16.10;99.90
44431;DHT22;30135;47.866;-4.222;2022-10-16T10:15:12;16.00;99.90
44431;DHT22;30135;47.866;-4.222;2022-10-16T10:17:54;16.00;99.90
44431;DHT22;30135;47.866;-4.222;2022-10-16T10:20:30;16.00;99.90
44431;DHT22;30135;47.866;-4.222;2022-10-16T10:23:00;16.10;99.90
44431;DHT22;30135;47.866;-4.222;2022-10-16T10:25:45;16.10;99.90
44431;DHT22;30135;47.866;-4.222;2022-10-16T10:31:58;16.10;99.90
44431;DHT22;30135;47.866;-4.222;2022-10-16T10:37:23;16.00;99.90
44431;DHT22;30135;47.866;-4.222;2022-10-16T10:42:51;16.00;99.90
44431;DHT22;30135;47.866;-4.222;2022-10-16T10:45:42;16.10;99.90
44431;DHT22;30135;47.866;-4.222;2022-10-16T10:58:59;16.10;99.90
44431;DHT22;30135;47.866;-4.222;2022-10-16T11:07:49;16.20;99.90
44431;DHT22;30135;47.866;-4.222;2022-10-16T11:16:26;16.10;99.90
44431;DHT22;30135;47.866;-4.222;2022-10-16T11:19:03;16.10;99.90
44431;DHT22;30135;47.866;-4.222;2022-10-16T11:22:01;16.10;99.90
44431;DHT22;30135;47.866;-4.222;2022-10-16T11:30:27;16.20;99.90
44431;DHT22;30135;47.866;-4.222;2022-10-16T11:33:24;16.20;99.90
44431;DHT22;30135;47.866;-4.222;2022-10-16T11:39:21;16.20;99.90
44431;DHT22;30135;47.866;-4.222;2022-10-16T11:41:54;16.30;99.90
44431;DHT22;30135;47.866;-4.222;2022-10-16T11:50:09;16.30;99.90
44431;DHT22;30135;47.866;-4.222;2022-10-16T11:55:31;16.40;99.90
44431;DHT22;30135;47.866;-4.222;2022-10-16T11:58:07;16.40;99.90
44431;DHT22;30135;47.866;-4.222;2022-10-16T12:01:17;16.50;99.90
44431;DHT22;30135;47.866;-4.222;2022-10-16T12:07:06;16.60;99.90
44431;DHT22;30135;47.866;-4.222;2022-10-16T12:09:38;16.60;99.90
44431;DHT22;30135;47.866;-4.222;2022-10-16T12:12:05;16.60;99.90
44431;DHT22;30135;47.866;-4.222;2022-10-16T12:15:15;16.70;99.90
44431;DHT22;30135;47.866;-4.222;2022-10-16T12:17:43;16.70;99.90
44431;DHT22;30135;47.866;-4.222;2022-10-16T12:22:58;16.80;99.90
44431;DHT22;30135;47.866;-4.222;2022-10-16T12:28:38;16.90;99.90
44431;DHT22;30135;47.866;-4.222;2022-10-16T12:30:57;16.90;99.90
44431;DHT22;30135;47.866;-4.222;2022-10-16T12:33:34;17.00;99.90
44431;DHT22;30135;47.866;-4.222;2022-10-16T12:36:15;17.00;99.90
44431;DHT22;30135;47.866;-4.222;2022-10-16T12:38:50;17.00;99.90
44431;DHT22;30135;47.866;-4.222;2022-10-16T12:41:30;17.10;99.90
44431;DHT22;30135;47.866;-4.222;2022-10-16T12:44:00;17.10;99.90
44431;DHT22;30135;47.866;-4.222;2022-10-16T12:51:42;17.20;99.90
44431;DHT22;30135;47.866;-4.222;2022-10-16T12:54:31;17.30;99.90
44431;DHT22;30135;47.866;-4.222;2022-10-16T13:00:36;17.30;99.90
44431;DHT22;30135;47.866;-4.222;2022-10-16T13:06:23;17.30;99.90
44431;DHT22;30135;47.866;-4.222;2022-10-16T13:21:39;17.40;99.90
44431;DHT22;30135;47.866;-4.222;2022-10-16T13:27:25;17.40;99.90
44431;DHT22;30135;47.866;-4.222;2022-10-16T13:32:37;17.40;99.90
44431;DHT22;30135;47.866;-4.222;2022-10-16T13:35:19;17.40;99.90
44431;DHT22;30135;47.866;-4.222;2022-10-16T13:37:50;17.40;99.90
44431;DHT22;30135;47.866;-4.222;2022-10-16T13:40:22;17.50;99.90
44431;DHT22;30135;47.866;-4.222;2022-10-16T13:42:51;17.40;99.90
44431;DHT22;30135;47.866;-4.222;2022-10-16T13:45:24;17.50;99.90
44431;DHT22;30135;47.866;-4.222;2022-10-16T13:48:08;17.50;99.90
44431;DHT22;30135;47.866;-4.222;2022-10-16T13:50:40;17.50;99.90
44431;DHT22;30135;47.866;-4.222;2022-10-16T13:53:13;17.40;99.90
44431;DHT22;30135;47.866;-4.222;2022-10-16T13:55:40;17.50;99.90
44431;DHT22;30135;47.866;-4.222;2022-10-16T13:58:10;17.50;99.90
44431;DHT22;30135;47.866;-4.222;2022-10-16T14:00:39;17.50;99.90
44431;DHT22;30135;47.866;-4.222;2022-10-16T14:03:14;17.50;99.90
44431;DHT22;30135;47.866;-4.222;2022-10-16T14:08:18;17.60;99.90
44431;DHT22;30135;47.866;-4.222;2022-10-16T14:10:55;17.60;99.90
44431;DHT22;30135;47.866;-4.222;2022-10-16T14:13:31;17.60;99.90
44431;DHT22;30135;47.866;-4.222;2022-10-16T14:16:22;17.60;99.90
44431;DHT22;30135;47.866;-4.222;2022-10-16T14:19:01;17.70;99.90
44431;DHT22;30135;47.866;-4.222;2022-10-16T14:21:31;17.70;99.90
44431;DHT22;30135;47.866;-4.222;2022-10-16T14:24:11;17.60;99.90
44431;DHT22;30135;47.866;-4.222;2022-10-16T14:26:46;17.60;99.90
44431;DHT22;30135;47.866;-4.222;2022-10-16T14:29:25;17.70;99.90
44431;DHT22;30135;47.866;-4.222;2022-10-16T14:32:04;17.70;99.90
44431;DHT22;30135;47.866;-4.222;2022-10-16T14:34:37;17.70;99.90
44431;DHT22;30135;47.866;-4.222;2022-10-16T14:37:17;17.70;99.90
44431;DHT22;30135;47.866;-4.222;2022-10-16T14:39:52;17.70;99.90
44431;DHT22;30135;47.866;-4.222;2022-10-16T14:42:20;17.70;99.90
44431;DHT22;30135;47.866;-4.222;2022-10-16T14:44:53;17.70;99.90
44431;DHT22;30135;47.866;-4.222;2022-10-16T14:47:23;17.70;99.90
44431;DHT22;30135;47.866;-4.222;2022-10-16T14:49:53;17.70;99.90
44431;DHT22;30135;47.866;-4.222;2022-10-16T14:52:24;17.70;99.90
44431;DHT22;30135;47.866;-4.222;2022-10-16T14:54:52;17.70;99.90
44431;DHT22;30135;47.866;-4.222;2022-10-16T14:57:24;17.70;99.90
44431;DHT22;30135;47.866;-4.222;2022-10-16T14:59:54;17.70;99.90
44431;DHT22;30135;47.866;-4.222;2022-10-16T15:02:34;17.70;99.90
44431;DHT22;30135;47.866;-4.222;2022-10-16T15:05:20;17.70;99.90
44431;DHT22;30135;47.866;-4.222;2022-10-16T15:07:49;17.70;99.90
44431;DHT22;30135;47.866;-4.222;2022-10-16T15:10:17;17.70;99.90
44431;DHT22;30135;47.866;-4.222;2022-10-16T15:12:45;17.70;99.90
44431;DHT22;30135;47.866;-4.222;2022-10-16T15:18:06;17.70;99.90
44431;DHT22;30135;47.866;-4.222;2022-10-16T15:20:35;17.70;99.90
44431;DHT22;30135;47.866;-4.222;2022-10-16T15:23:08;17.70;99.90
44431;DHT22;30135;47.866;-4.222;2022-10-16T15:28:12;17.70;99.90
44431;DHT22;30135;47.866;-4.222;2022-10-16T15:30:41;17.70;99.90
44431;DHT22;30135;47.866;-4.222;2022-10-16T15:33:22;17.70;99.90
44431;DHT22;30135;47.866;-4.222;2022-10-16T15:35:54;17.80;99.90
44431;DHT22;30135;47.866;-4.222;2022-10-16T15:38:28;17.80;99.90
44431;DHT22;30135;47.866;-4.222;2022-10-16T15:40:55;17.70;99.90
44431;DHT22;30135;47.866;-4.222;2022-10-16T15:43:22;17.70;99.90
44431;DHT22;30135;47.866;-4.222;2022-10-16T15:46:04;17.80;99.90
44431;DHT22;30135;47.866;-4.222;2022-10-16T15:48:33;17.70;99.90
44431;DHT22;30135;47.866;-4.222;2022-10-16T15:51:02;17.70;99.90
44431;DHT22;30135;47.866;-4.222;2022-10-16T15:53:32;17.70;99.90
44431;DHT22;30135;47.866;-4.222;2022-10-16T15:56:03;17.70;99.90
44431;DHT22;30135;47.866;-4.222;2022-10-16T15:58:33;17.80;99.90
44431;DHT22;30135;47.866;-4.222;2022-10-16T16:01:01;17.80;99.90
44431;DHT22;30135;47.866;-4.222;2022-10-16T16:03:30;17.80;99.90
44431;DHT22;30135;47.866;-4.222;2022-10-16T16:06:05;17.80;99.90
44431;DHT22;30135;47.866;-4.222;2022-10-16T16:08:36;17.80;99.90
44431;DHT22;30135;47.866;-4.222;2022-10-16T16:11:09;17.80;99.90
44431;DHT22;30135;47.866;-4.222;2022-10-16T16:13:38;17.80;99.90
44431;DHT22;30135;47.866;-4.222;2022-10-16T16:16:12;17.80;99.90
44431;DHT22;30135;47.866;-4.222;2022-10-16T16:18:41;17.80;99.90
44431;DHT22;30135;47.866;-4.222;2022-10-16T16:21:08;17.80;99.90
44431;DHT22;30135;47.866;-4.222;2022-10-16T16:23:37;17.80;99.90
44431;DHT22;30135;47.866;-4.222;2022-10-16T16:26:22;17.70;99.90
44431;DHT22;30135;47.866;-4.222;2022-10-16T16:29:03;17.80;99.90
44431;DHT22;30135;47.866;-4.222;2022-10-16T16:31:31;17.80;99.90
44431;DHT22;30135;47.866;-4.222;2022-10-16T16:33:59;17.80;99.90
44431;DHT22;30135;47.866;-4.222;2022-10-16T16:36:25;17.80;99.90
44431;DHT22;30135;47.866;-4.222;2022-10-16T16:38:53;17.80;99.90
44431;DHT22;30135;47.866;-4.222;2022-10-16T16:41:23;17.80;99.90
44431;DHT22;30135;47.866;-4.222;2022-10-16T16:43:53;17.80;99.90
44431;DHT22;30135;47.866;-4.222;2022-10-16T16:46:25;17.80;99.90
44431;DHT22;30135;47.866;-4.222;2022-10-16T16:48:58;17.80;99.90
44431;DHT22;30135;47.866;-4.222;2022-10-16T16:51:25;17.80;99.90
44431;DHT22;30135;47.866;-4.222;2022-10-16T16:53:55;17.80;99.90
44431;DHT22;30135;47.866;-4.222;2022-10-16T16:56:24;17.80;99.90
44431;DHT22;30135;47.866;-4.222;2022-10-16T16:58:56;17.80;99.90
44431;DHT22;30135;47.866;-4.222;2022-10-16T17:01:28;17.80;99.90
44431;DHT22;30135;47.866;-4.222;2022-10-16T17:03:57;17.80;99.90
44431;DHT22;30135;47.866;-4.222;2022-10-16T17:06:27;17.80;99.90
44431;DHT22;30135;47.866;-4.222;2022-10-16T17:08:58;17.80;99.90
44431;DHT22;30135;47.866;-4.222;2022-10-16T17:11:28;17.90;99.90
44431;DHT22;30135;47.866;-4.222;2022-10-16T17:13:56;17.90;99.90
44431;DHT22;30135;47.866;-4.222;2022-10-16T17:16:25;17.90;99.90
44431;DHT22;30135;47.866;-4.222;2022-10-16T17:19:02;17.90;99.90
44431;DHT22;30135;47.866;-4.222;2022-10-16T17:21:31;17.90;99.90
44431;DHT22;30135;47.866;-4.222;2022-10-16T17:23:58;17.90;99.90
44431;DHT22;30135;47.866;-4.222;2022-10-16T17:26:32;17.90;99.90
44431;DHT22;30135;47.866;-4.222;2022-10-16T17:29:04;17.90;99.90
44431;DHT22;30135;47.866;-4.222;2022-10-16T17:31:33;17.90;99.90
44431;DHT22;30135;47.866;-4.222;2022-10-16T17:34:07;17.90;99.90
44431;DHT22;30135;47.866;-4.222;2022-10-16T17:36:36;17.90;99.90
44431;DHT22;30135;47.866;-4.222;2022-10-16T17:39:06;17.90;99.90
44431;DHT22;30135;47.866;-4.222;2022-10-16T17:41:40;17.90;99.90
44431;DHT22;30135;47.866;-4.222;2022-10-16T17:44:07;17.90;99.90
44431;DHT22;30135;47.866;-4.222;2022-10-16T17:46:37;17.80;99.90
44431;DHT22;30135;47.866;-4.222;2022-10-16T17:49:03;17.90;99.90
44431;DHT22;30135;47.866;-4.222;2022-10-16T17:51:30;17.90;99.90
44431;DHT22;30135;47.866;-4.222;2022-10-16T17:54:00;17.90;99.90
44431;DHT22;30135;47.866;-4.222;2022-10-16T17:56:32;17.80;99.90
44431;DHT22;30135;47.866;-4.222;2022-10-16T17:59:00;17.90;99.90
44431;DHT22;30135;47.866;-4.222;2022-10-16T18:01:37;17.90;99.90
44431;DHT22;30135;47.866;-4.222;2022-10-16T18:04:14;17.80;99.90
44431;DHT22;30135;47.866;-4.222;2022-10-16T18:06:41;17.80;99.90